Time;durP1;ratioP1;P1;durP2;ratioP2;P2;SDS_P1;SDS_P2;PMS_P1;PMS_P2;Temp;Humidity;BMP_temperature;BMP_pressure;BME280_temperature;BME280_humidity;BME280_pressure;Samples;Min_cycle;Max_cycle;Signal;HPM_P1;HPM_P2
2023/08/17 00:00:14;;;;;;;5.43;1.50;;;27.50;69.00;;;;;;5026267;28;20034;-56
2023/08/17 00:02:42;;;;;;;3.30;1.80;;;27.50;69.10;;;;;;5026377;28;20017;-56
2023/08/17 00:05:08;;;;;;;4.18;1.67;;;27.50;69.10;;;;;;5024624;28;20092;-56
2023/08/17 00:07:33;;;;;;;5.43;1.63;;;27.40;69.20;;;;;;5025987;28;20026;-56
2023/08/17 00:09:59;;;;;;;5.25;1.63;;;27.40;69.30;;;;;;5026444;28;20053;-56
2023/08/17 00:12:25;;;;;;;4.60;1.70;;;27.40;69.30;;;;;;5026026;28;20037;-56
2023/08/17 00:14:51;;;;;;;2.63;1.38;;;27.30;69.30;;;;;;5026229;28;20057;-56
2023/08/17 00:17:16;;;;;;;4.95;1.77;;;27.30;69.40;;;;;;5024754;28;20026;-55
2023/08/17 00:19:42;;;;;;;3.08;1.65;;;27.30;69.60;;;;;;5025931;28;20030;-56
2023/08/17 00:22:08;;;;;;;2.22;1.60;;;27.30;69.60;;;;;;5024735;28;20033;-56
2023/08/17 00:24:33;;;;;;;2.83;1.50;;;27.30;69.70;;;;;;5040060;28;20056;-56
2023/08/17 00:26:59;;;;;;;3.65;1.70;;;27.20;69.80;;;;;;5025698;28;20057;-56
2023/08/17 00:29:24;;;;;;;4.93;1.70;;;27.20;69.90;;;;;;5025866;28;20037;-56
2023/08/17 00:31:51;;;;;;;2.63;1.83;;;27.20;69.90;;;;;;5025583;28;20041;-56
2023/08/17 00:34:16;;;;;;;5.45;1.70;;;27.20;70.00;;;;;;5026706;28;20040;-56
2023/08/17 00:36:42;;;;;;;3.30;1.45;;;27.10;70.00;;;;;;5026206;28;20046;-56
2023/08/17 00:39:07;;;;;;;2.85;1.70;;;27.10;70.00;;;;;;5026026;28;20037;-55
2023/08/17 00:41:33;;;;;;;1.98;1.60;;;27.10;70.20;;;;;;5025744;28;20040;-56
2023/08/17 00:43:59;;;;;;;5.05;1.50;;;27.10;70.30;;;;;;5026102;28;20094;-56
2023/08/17 00:46:26;;;;;;;2.85;1.65;;;26.80;70.10;;;;;;5025360;28;20065;-55
2023/08/17 00:48:52;;;;;;;5.55;1.52;;;27.00;70.30;;;;;;5025699;28;20038;-56
2023/08/17 00:51:20;;;;;;;3.60;1.40;;;27.00;70.40;;;;;;5023790;28;20117;-56
2023/08/17 00:53:45;;;;;;;3.45;1.73;;;27.00;70.50;;;;;;5008142;28;20044;-56
2023/08/17 00:56:11;;;;;;;2.85;1.70;;;27.00;70.50;;;;;;5024096;28;20087;-56
2023/08/17 00:58:36;;;;;;;5.13;1.73;;;27.00;70.60;;;;;;5024014;28;20105;-56
2023/08/17 01:01:02;;;;;;;3.03;1.38;;;26.90;70.60;;;;;;5024012;28;20105;-56
2023/08/17 01:03:29;;;;;;;2.70;1.40;;;26.80;70.70;;;;;;5023818;28;20108;-56
2023/08/17 01:05:55;;;;;;;3.38;1.40;;;26.90;70.90;;;;;;5025155;28;20041;-56
2023/08/17 01:08:21;;;;;;;2.97;1.52;;;26.80;71.00;;;;;;5025313;28;20105;-56
2023/08/17 01:10:57;;;;;;;3.53;1.50;;;26.80;71.00;;;;;;5025211;28;20033;-56
2023/08/17 01:13:25;;;;;;;2.55;1.42;;;26.80;71.00;;;;;;5007678;28;20510;-56
2023/08/17 01:15:54;;;;;;;4.20;1.50;;;26.70;71.00;;;;;;5023565;28;20088;-56
2023/08/17 01:18:25;;;;;;;5.35;1.83;;;26.80;71.10;;;;;;5007548;28;20053;-56
2023/08/17 01:20:51;;;;;;;2.90;1.60;;;26.70;71.20;;;;;;5025113;28;20034;-56
2023/08/17 01:23:16;;;;;;;2.30;1.50;;;26.70;71.20;;;;;;5007444;28;20026;-56
2023/08/17 01:25:42;;;;;;;3.45;1.30;;;26.70;71.30;;;;;;5023597;28;20116;-56
2023/08/17 01:28:07;;;;;;;2.45;1.55;;;26.70;71.40;;;;;;5024945;28;20038;-56
2023/08/17 01:30:46;;;;;;;2.38;1.50;;;26.60;71.30;;;;;;5025042;28;20037;-56
2023/08/17 01:33:11;;;;;;;2.97;1.60;;;26.70;71.50;;;;;;5023576;28;20361;-55
2023/08/17 01:35:48;;;;;;;3.15;1.45;;;26.60;71.40;;;;;;5024934;28;20029;-56
2023/08/17 01:38:18;;;;;;;8.98;1.73;;;26.60;71.60;;;;;;5027571;28;20026;-56
2023/08/17 01:40:47;;;;;;;2.47;1.55;;;26.60;71.60;;;;;;5011081;28;20391;-56
2023/08/17 01:43:12;;;;;;;3.72;1.67;;;26.50;71.60;;;;;;5027573;28;20442;-56
2023/08/17 01:45:38;;;;;;;1.85;1.40;;;26.50;71.60;;;;;;5027468;28;20141;-56
2023/08/17 01:48:04;;;;;;;4.07;1.73;;;26.50;71.70;;;;;;5028786;28;20109;-56
2023/08/17 01:50:29;;;;;;;4.65;1.85;;;26.50;71.80;;;;;;5028797;28;20030;-56
2023/08/17 01:52:55;;;;;;;5.68;1.50;;;26.50;72.50;;;;;;5028805;28;20034;-56
2023/08/17 01:55:21;;;;;;;2.45;1.38;;;26.50;71.90;;;;;;5028606;28;20361;-55
2023/08/17 01:57:46;;;;;;;4.13;1.70;;;26.40;72.00;;;;;;5028767;28;20145;-56
2023/08/17 02:00:13;;;;;;;2.47;1.70;;;26.40;72.00;;;;;;5028657;28;20033;-56
2023/08/17 02:02:38;;;;;;;4.28;1.95;;;26.40;72.10;;;;;;5028464;28;20117;-56
2023/08/17 02:05:04;;;;;;;2.10;1.60;;;26.40;72.20;;;;;;5028518;28;20026;-56
2023/08/17 02:07:30;;;;;;;5.05;1.70;;;26.30;72.90;;;;;;5028127;28;20037;-56
2023/08/17 02:09:55;;;;;;;3.38;1.63;;;26.40;72.40;;;;;;5028317;28;20045;-56
2023/08/17 02:12:21;;;;;;;3.00;1.58;;;26.30;72.40;;;;;;5028183;28;20030;-56
2023/08/17 02:14:46;;;;;;;2.75;1.80;;;26.30;72.40;;;;;;5028354;28;20455;-56
2023/08/17 02:17:12;;;;;;;3.22;1.50;;;26.30;72.40;;;;;;5026837;28;20030;-56
2023/08/17 02:19:38;;;;;;;5.45;1.52;;;26.30;72.60;;;;;;5028328;28;20500;-55
2023/08/17 02:22:03;;;;;;;2.95;1.55;;;26.30;72.70;;;;;;5028067;28;20025;-55
2023/08/17 02:24:29;;;;;;;2.75;1.50;;;26.20;72.70;;;;;;5027082;28;20035;-56
2023/08/17 02:26:54;;;;;;;2.53;1.80;;;26.20;72.70;;;;;;5026757;28;20025;-56
2023/08/17 02:29:20;;;;;;;3.80;1.90;;;26.20;72.80;;;;;;5029190;28;20037;-55
2023/08/17 02:31:45;;;;;;;4.65;1.40;;;26.10;72.80;;;;;;5028171;28;20466;-56
2023/08/17 02:34:11;;;;;;;2.92;1.70;;;26.10;72.90;;;;;;5028080;28;20541;-55
2023/08/17 02:36:36;;;;;;;5.25;1.58;;;26.10;73.00;;;;;;5010448;28;20058;-56
2023/08/17 02:39:03;;;;;;;2.72;1.70;;;26.10;73.00;;;;;;5028110;28;20026;-56
2023/08/17 02:41:30;;;;;;;5.90;2.75;;;26.00;73.00;;;;;;5026877;28;20038;-56
2023/08/17 02:43:55;;;;;;;6.93;2.92;;;26.00;73.10;;;;;;5026692;28;20133;-55
2023/08/17 02:46:21;;;;;;;7.15;3.20;;;26.10;73.20;;;;;;5025959;28;20041;-56
2023/08/17 02:48:47;;;;;;;7.20;3.58;;;26.00;73.20;;;;;;5027397;28;20069;-55
2023/08/17 02:51:13;;;;;;;6.97;3.58;;;26.00;73.20;;;;;;5027930;28;20034;-56
2023/08/17 02:53:39;;;;;;;5.72;3.00;;;26.00;73.30;;;;;;5027531;28;20026;-56
2023/08/17 02:56:04;;;;;;;4.10;3.10;;;26.00;73.40;;;;;;5027524;28;20069;-55
2023/08/17 02:58:30;;;;;;;4.03;2.90;;;26.00;73.50;;;;;;5026054;28;20358;-56
2023/08/17 03:00:55;;;;;;;3.65;2.80;;;25.90;73.50;;;;;;5027283;28;20034;-56
2023/08/17 03:03:21;;;;;;;2.85;2.33;;;25.90;73.70;;;;;;5026055;28;20064;-56
2023/08/17 03:05:46;;;;;;;5.63;2.40;;;26.00;73.80;;;;;;5027211;28;20065;-56
2023/08/17 03:08:12;;;;;;;3.67;2.60;;;25.90;73.70;;;;;;5025957;28;20029;-56
2023/08/17 03:10:38;;;;;;;5.25;2.30;;;25.90;73.80;;;;;;5027350;28;20034;-56
2023/08/17 03:13:03;;;;;;;5.05;2.35;;;25.90;73.90;;;;;;5027295;28;20036;-56
2023/08/17 03:15:29;;;;;;;2.90;2.03;;;25.90;74.00;;;;;;5027208;28;20091;-56
2023/08/17 03:17:54;;;;;;;4.32;2.20;;;25.90;74.10;;;;;;5026913;28;20027;-56
2023/08/17 03:20:20;;;;;;;4.60;2.40;;;25.90;74.20;;;;;;5025693;28;20026;-56
2023/08/17 03:22:45;;;;;;;3.08;2.67;;;25.80;74.20;;;;;;5026814;28;20030;-56
2023/08/17 03:25:11;;;;;;;7.05;2.45;;;25.90;74.30;;;;;;5026975;28;20065;-55
2023/08/17 03:27:36;;;;;;;12.02;3.95;;;25.80;74.30;;;;;;5026979;28;20033;-56
2023/08/17 03:30:03;;;;;;;18.67;3.97;;;25.80;74.30;;;;;;5026766;28;20064;-55
2023/08/17 03:32:29;;;;;;;25.92;5.97;;;25.80;74.40;;;;;;5026578;28;20080;-56
2023/08/17 03:34:54;;;;;;;20.33;5.13;;;25.80;74.50;;;;;;5026880;28;20029;-56
2023/08/17 03:37:20;;;;;;;32.28;6.50;;;25.80;74.60;;;;;;5026446;28;20034;-56
2023/08/17 03:39:45;;;;;;;35.60;7.20;;;25.80;75.40;;;;;;5026709;28;20022;-56
2023/08/17 03:42:11;;;;;;;41.40;8.93;;;25.80;74.80;;;;;;5026756;28;20030;-56
2023/08/17 03:44:36;;;;;;;47.95;8.02;;;25.80;75.00;;;;;;5026573;28;20033;-56
2023/08/17 03:47:02;;;;;;;50.35;8.13;;;25.70;75.00;;;;;;5041722;28;20034;-56
2023/08/17 03:49:28;;;;;;;53.20;8.30;;;25.70;75.00;;;;;;5026383;28;20109;-56
2023/08/17 03:51:53;;;;;;;44.97;8.30;;;25.70;75.00;;;;;;5026434;28;20067;-56
2023/08/17 03:54:19;;;;;;;56.78;9.32;;;25.70;75.00;;;;;;5026562;28;20426;-56
2023/08/17 03:56:45;;;;;;;47.92;7.40;;;25.70;75.10;;;;;;5026355;28;20181;-56
2023/08/17 03:59:10;;;;;;;44.20;8.63;;;25.70;75.20;;;;;;5024893;28;20419;-56
2023/08/17 04:01:36;;;;;;;38.75;8.52;;;25.70;75.30;;;;;;5026239;28;20041;-55
2023/08/17 04:04:02;;;;;;;78.80;10.80;;;25.60;75.30;;;;;;5024928;28;20393;-56
2023/08/17 04:06:27;;;;;;;68.55;9.95;;;25.60;75.40;;;;;;5026205;28;20049;-56
2023/08/17 04:08:53;;;;;;;55.05;9.55;;;25.60;75.50;;;;;;5026265;28;20030;-56
2023/08/17 04:11:18;;;;;;;46.97;8.43;;;25.60;75.60;;;;;;5024853;28;20120;-56
2023/08/17 04:13:44;;;;;;;28.70;7.22;;;25.60;75.70;;;;;;5026178;28;20037;-56
2023/08/17 04:16:09;;;;;;;47.28;9.02;;;25.60;75.70;;;;;;5026078;28;20061;-56
2023/08/17 04:18:35;;;;;;;46.38;8.45;;;25.60;75.80;;;;;;5024725;28;20045;-56
2023/08/17 04:21:00;;;;;;;47.10;8.65;;;25.50;75.70;;;;;;5025783;28;20046;-56
2023/08/17 04:23:26;;;;;;;39.85;8.48;;;25.50;75.90;;;;;;5025999;28;20093;-56
2023/08/17 04:25:52;;;;;;;47.90;6.80;;;25.50;75.90;;;;;;5025990;28;20033;-56
2023/08/17 04:28:18;;;;;;;49.67;8.35;;;25.50;76.00;;;;;;5008155;28;20557;-56
2023/08/17 04:30:44;;;;;;;48.78;8.93;;;25.50;76.70;;;;;;5025733;28;20113;-56
2023/08/17 04:33:09;;;;;;;54.33;8.48;;;25.40;75.90;;;;;;5024481;28;20052;-56
2023/08/17 04:35:35;;;;;;;59.90;9.68;;;25.50;76.00;;;;;;5025549;28;20034;-56
2023/08/17 04:38:00;;;;;;;64.22;10.35;;;25.40;76.10;;;;;;5025473;28;20037;-56
2023/08/17 04:40:26;;;;;;;55.63;8.75;;;25.40;76.30;;;;;;5025354;28;20037;-56
2023/08/17 04:42:51;;;;;;;39.03;8.88;;;25.40;76.40;;;;;;5025484;28;20041;-56
2023/08/17 04:45:17;;;;;;;60.47;9.85;;;25.40;76.60;;;;;;5025301;28;20117;-56
2023/08/17 04:47:42;;;;;;;42.58;8.43;;;25.40;76.70;;;;;;5023986;28;20021;-56
2023/08/17 04:50:08;;;;;;;53.53;9.00;;;25.40;76.80;;;;;;5025270;28;20054;-56
2023/08/17 04:52:34;;;;;;;34.20;8.88;;;25.30;76.70;;;;;;5025380;28;20113;-56
2023/08/17 04:54:59;;;;;;;50.67;9.10;;;25.30;76.70;;;;;;5024980;28;20048;-56
2023/08/17 04:57:26;;;;;;;47.97;8.93;;;25.40;77.00;;;;;;5025011;28;20040;-56
2023/08/17 04:59:51;;;;;;;34.20;8.32;;;25.40;77.00;;;;;;5024899;28;20026;-56
2023/08/17 05:02:17;;;;;;;42.10;8.52;;;25.30;77.00;;;;;;5023717;28;20053;-56
2023/08/17 05:04:42;;;;;;;46.78;8.40;;;25.30;77.00;;;;;;5025162;28;20029;-56
2023/08/17 05:07:08;;;;;;;59.65;8.82;;;25.30;77.00;;;;;;5025022;28;20068;-55
2023/08/17 05:09:34;;;;;;;30.98;7.97;;;25.30;77.00;;;;;;5023807;28;20034;-56
2023/08/17 05:11:59;;;;;;;28.65;7.18;;;25.30;77.20;;;;;;5025259;28;20076;-56
2023/08/17 05:14:25;;;;;;;35.17;6.65;;;25.30;77.80;;;;;;5025405;28;20030;-56
2023/08/17 05:16:50;;;;;;;28.13;5.70;;;25.20;77.90;;;;;;5024956;28;20029;-56
2023/08/17 05:19:16;;;;;;;21.65;5.20;;;25.20;78.40;;;;;;5023622;28;20034;-56
2023/08/17 05:21:42;;;;;;;31.45;5.55;;;25.10;78.80;;;;;;5024842;28;20026;-55
2023/08/17 05:24:07;;;;;;;40.90;6.25;;;25.00;79.30;;;;;;5024995;28;20053;-56
2023/08/17 05:26:33;;;;;;;39.45;6.40;;;25.00;79.70;;;;;;5025056;28;20033;-56
2023/08/17 05:28:58;;;;;;;29.25;5.80;;;24.90;80.00;;;;;;5016751;28;20026;-56
2023/08/17 05:31:24;;;;;;;39.05;6.43;;;24.80;80.30;;;;;;5005154;28;20080;-56
2023/08/17 05:33:49;;;;;;;33.00;5.05;;;24.80;80.80;;;;;;5007597;28;20026;-56
2023/08/17 05:36:15;;;;;;;46.67;5.93;;;24.80;81.10;;;;;;5024757;28;20042;-56
2023/08/17 05:38:40;;;;;;;51.65;7.05;;;24.70;81.30;;;;;;5024845;28;20113;-56
2023/08/17 05:41:06;;;;;;;47.72;7.28;;;24.70;81.60;;;;;;5024817;28;20026;-56
2023/08/17 05:43:31;;;;;;;54.40;6.53;;;24.60;81.80;;;;;;5022684;28;20052;-56
2023/08/17 05:45:59;;;;;;;60.60;7.57;;;24.60;82.00;;;;;;5025211;28;20030;-56
2023/08/17 05:48:24;;;;;;;61.55;7.78;;;24.60;82.20;;;;;;5024255;28;20029;-56
2023/08/17 05:50:50;;;;;;;62.90;8.48;;;24.50;82.60;;;;;;5023585;28;20060;-56
2023/08/17 05:53:15;;;;;;;60.50;8.15;;;24.50;82.80;;;;;;5021933;28;20466;-56
2023/08/17 05:55:41;;;;;;;50.03;9.07;;;24.50;83.10;;;;;;5015187;28;20418;-55
2023/08/17 05:58:06;;;;;;;25.60;5.22;;;24.50;83.10;;;;;;5005107;28;20471;-56
2023/08/17 06:00:32;;;;;;;30.60;5.60;;;24.40;83.10;;;;;;5005177;28;20030;-56
2023/08/17 06:03:03;;;;;;;39.75;6.53;;;24.50;83.30;;;;;;5015739;28;20030;-55
2023/08/17 06:05:30;;;;;;;58.83;7.43;;;24.50;83.50;;;;;;5021540;28;20137;-56
2023/08/17 06:07:56;;;;;;;36.90;5.03;;;24.50;83.70;;;;;;5023966;28;20447;-56
2023/08/17 06:10:25;;;;;;;41.45;6.72;;;24.50;83.70;;;;;;5020211;28;20033;-56
2023/08/17 06:12:52;;;;;;;22.15;5.28;;;24.50;83.80;;;;;;5021212;28;20018;-55
2023/08/17 06:15:17;;;;;;;21.88;4.75;;;24.50;83.80;;;;;;5023046;28;20021;-56
2023/08/17 06:17:43;;;;;;;24.60;4.78;;;24.50;84.00;;;;;;5022549;28;20029;-56
2023/08/17 06:20:10;;;;;;;33.55;4.18;;;24.50;84.20;;;;;;5022562;28;20045;-56
2023/08/17 06:22:35;;;;;;;20.83;4.22;;;24.50;84.20;;;;;;5027561;28;20052;-56
2023/08/17 06:25:01;;;;;;;16.20;3.90;;;24.50;84.30;;;;;;5028410;28;20026;-56
2023/08/17 06:27:26;;;;;;;14.55;3.95;;;24.50;84.40;;;;;;5026177;28;20026;-56
2023/08/17 06:29:52;;;;;;;17.17;3.58;;;24.50;84.50;;;;;;5023408;28;20814;-56
2023/08/17 06:32:17;;;;;;;13.63;3.60;;;24.50;84.70;;;;;;5026035;28;20041;-55
2023/08/17 06:34:43;;;;;;;17.02;2.97;;;24.50;84.50;;;;;;5026512;28;20030;-56
2023/08/17 06:37:08;;;;;;;18.50;3.22;;;24.50;84.60;;;;;;5025237;28;20060;-56
2023/08/17 06:39:34;;;;;;;16.08;3.35;;;24.50;84.60;;;;;;5024303;28;20105;-56
2023/08/17 06:42:00;;;;;;;13.02;3.70;;;24.50;84.70;;;;;;5021132;28;20098;-56
2023/08/17 06:44:25;;;;;;;18.38;3.55;;;24.50;84.70;;;;;;5023784;28;20060;-56
2023/08/17 06:46:51;;;;;;;14.15;3.10;;;24.50;84.50;;;;;;5025339;28;20036;-56
2023/08/17 06:49:16;;;;;;;16.08;2.88;;;24.60;84.90;;;;;;5023286;28;20042;-56
2023/08/17 06:51:42;;;;;;;10.05;2.92;;;24.60;84.60;;;;;;5026886;28;20026;-56
2023/08/17 06:54:08;;;;;;;18.70;3.95;;;24.50;84.40;;;;;;5022758;28;20436;-56
2023/08/17 06:56:34;;;;;;;30.02;4.60;;;24.50;84.70;;;;;;5026028;28;20030;-56
2023/08/17 06:58:59;;;;;;;27.08;5.13;;;24.50;84.50;;;;;;5025604;28;20384;-56
2023/08/17 07:01:25;;;;;;;33.00;5.57;;;24.60;84.40;;;;;;5019449;28;20466;-56
2023/08/17 07:03:51;;;;;;;45.20;5.97;;;24.60;84.40;;;;;;5023582;28;20433;-56
2023/08/17 07:06:16;;;;;;;32.47;4.55;;;24.60;84.20;;;;;;5026997;28;20042;-56
2023/08/17 07:08:42;;;;;;;40.67;5.18;;;24.60;84.00;;;;;;5027185;28;20052;-56
2023/08/17 07:11:08;;;;;;;49.70;5.72;;;24.60;84.30;;;;;;5007774;28;20034;-56
2023/08/17 07:13:34;;;;;;;39.35;4.30;;;24.60;84.20;;;;;;5025058;28;20419;-56
2023/08/17 07:15:59;;;;;;;27.20;4.43;;;24.70;84.30;;;;;;5025486;28;20033;-56
2023/08/17 07:18:25;;;;;;;54.88;6.38;;;24.60;83.90;;;;;;5025777;28;20026;-56
2023/08/17 07:20:50;;;;;;;39.38;7.15;;;24.60;83.90;;;;;;5020437;28;20086;-56
2023/08/17 07:23:16;;;;;;;196.70;22.48;;;24.70;83.80;;;;;;5026352;28;20065;-56
2023/08/17 07:25:41;;;;;;;49.63;7.45;;;24.70;83.70;;;;;;5026968;28;20030;-56
2023/08/17 07:28:07;;;;;;;46.20;6.75;;;24.70;83.70;;;;;;5025521;28;20040;-56
2023/08/17 07:30:32;;;;;;;38.15;6.38;;;24.70;83.80;;;;;;5022660;28;20022;-56
2023/08/17 07:32:58;;;;;;;44.65;7.22;;;24.70;83.90;;;;;;5022543;28;20036;-56
2023/08/17 07:35:23;;;;;;;36.53;6.45;;;24.80;83.90;;;;;;5026539;28;20037;-55
2023/08/17 07:37:49;;;;;;;46.00;7.15;;;24.80;83.70;;;;;;5025186;28;20081;-56
2023/08/17 07:40:15;;;;;;;52.80;7.60;;;24.80;83.60;;;;;;5038059;28;20092;-56
2023/08/17 07:42:40;;;;;;;50.70;7.05;;;24.80;83.60;;;;;;5027286;28;20025;-56
2023/08/17 07:45:07;;;;;;;39.13;5.90;;;24.80;83.60;;;;;;5026553;28;20045;-56
2023/08/17 07:47:34;;;;;;;35.80;5.43;;;24.80;83.70;;;;;;5025390;28;20034;-56
2023/08/17 07:49:59;;;;;;;25.52;5.95;;;24.80;83.60;;;;;;5023743;28;20062;-56
2023/08/17 07:52:25;;;;;;;27.55;5.50;;;24.80;83.70;;;;;;5025265;28;20040;-56
2023/08/17 07:54:50;;;;;;;62.47;7.80;;;24.90;84.30;;;;;;5025365;28;20045;-56
2023/08/17 07:57:16;;;;;;;27.98;5.93;;;24.90;83.60;;;;;;5023359;28;20038;-56
2023/08/17 07:59:42;;;;;;;40.30;7.40;;;24.90;83.60;;;;;;5022497;28;20041;-56
2023/08/17 08:02:07;;;;;;;24.70;5.63;;;24.90;83.40;;;;;;5024110;28;20173;-56
2023/08/17 08:04:33;;;;;;;37.63;6.57;;;24.90;83.40;;;;;;5023387;28;20044;-56
2023/08/17 08:06:58;;;;;;;33.63;5.78;;;24.90;83.50;;;;;;5020287;28;20045;-56
2023/08/17 08:09:24;;;;;;;31.55;6.10;;;24.90;83.40;;;;;;5023942;28;20037;-56
2023/08/17 08:11:49;;;;;;;35.65;6.63;;;24.90;83.40;;;;;;5023229;28;20033;-56
2023/08/17 08:14:15;;;;;;;25.65;6.57;;;25.00;83.60;;;;;;5025375;28;20044;-56
2023/08/17 08:16:40;;;;;;;32.00;6.75;;;25.00;84.00;;;;;;5024812;28;20314;-56
2023/08/17 08:19:06;;;;;;;25.23;5.55;;;25.00;83.10;;;;;;5026429;28;20040;-56
2023/08/17 08:21:31;;;;;;;31.20;6.25;;;25.00;83.20;;;;;;5025349;28;20037;-56
2023/08/17 08:23:57;;;;;;;34.22;6.47;;;25.00;83.20;;;;;;5022638;28;20026;-56
2023/08/17 08:26:22;;;;;;;32.67;5.97;;;25.10;83.40;;;;;;5024456;28;20037;-56
2023/08/17 08:28:48;;;;;;;47.63;6.18;;;25.00;83.40;;;;;;5017844;28;20058;-56
2023/08/17 08:31:13;;;;;;;34.33;6.13;;;25.10;83.70;;;;;;5029967;28;20132;-55
2023/08/17 08:33:39;;;;;;;74.93;9.50;;;25.10;84.00;;;;;;5029027;28;20038;-56
2023/08/17 08:36:06;;;;;;;44.95;7.13;;;25.10;84.00;;;;;;5025127;28;20034;-56
2023/08/17 08:38:31;;;;;;;41.10;6.53;;;25.20;84.20;;;;;;5022351;28;20109;-56
2023/08/17 08:40:57;;;;;;;38.67;6.43;;;25.20;84.10;;;;;;5014335;28;20054;-56
2023/08/17 08:43:22;;;;;;;40.03;6.30;;;25.20;83.90;;;;;;5021661;28;20156;-56
2023/08/17 08:45:49;;;;;;;51.53;8.15;;;25.30;84.20;;;;;;5022065;28;20439;-56
2023/08/17 08:48:14;;;;;;;43.58;7.57;;;25.30;84.20;;;;;;5020631;28;20046;-56
2023/08/17 08:50:40;;;;;;;52.38;7.93;;;25.30;83.70;;;;;;5016601;28;20133;-56
2023/08/17 08:53:15;;;;;;;66.38;7.80;;;25.40;83.80;;;;;;5007299;28;20030;-56
2023/08/17 08:56:02;;;;;;;59.47;9.50;;;25.30;83.90;;;;;;5021697;28;20038;-56
2023/08/17 08:58:29;;;;;;;55.00;9.25;;;25.40;84.00;;;;;;5020186;28;20053;-56
2023/08/17 09:00:54;;;;;;;50.47;8.07;;;25.40;84.00;;;;;;5018537;28;20050;-56
2023/08/17 09:03:21;;;;;;;47.45;8.07;;;25.40;84.30;;;;;;5011261;28;20025;-56
2023/08/17 09:05:49;;;;;;;76.15;10.18;;;25.40;84.30;;;;;;5016031;28;20029;-56
2023/08/17 09:08:21;;;;;;;41.20;8.63;;;25.50;84.30;;;;;;5019048;28;20049;-56
2023/08/17 09:10:47;;;;;;;48.08;8.07;;;25.50;84.20;;;;;;5010373;28;20036;-56
2023/08/17 09:13:12;;;;;;;48.13;7.95;;;25.60;84.50;;;;;;5018514;28;20026;-56
2023/08/17 09:15:38;;;;;;;45.17;6.88;;;25.60;84.40;;;;;;5021662;28;20045;-56
2023/08/17 09:18:06;;;;;;;40.60;8.27;;;25.60;84.50;;;;;;5021553;28;20044;-56
2023/08/17 09:20:37;;;;;;;49.75;7.57;;;25.70;84.50;;;;;;5022819;28;20111;-56
2023/08/17 09:23:04;;;;;;;55.83;7.78;;;25.70;84.50;;;;;;5021281;28;20111;-56
2023/08/17 09:25:29;;;;;;;45.78;7.78;;;25.80;84.50;;;;;;5020117;28;20034;-56
2023/08/17 09:27:55;;;;;;;37.80;6.93;;;25.80;84.40;;;;;;5010506;28;20037;-56
2023/08/17 09:30:20;;;;;;;35.65;7.32;;;25.90;84.40;;;;;;5017475;28;20057;-55
2023/08/17 09:32:47;;;;;;;37.85;7.07;;;25.90;84.20;;;;;;5020693;28;20054;-55
2023/08/17 09:35:12;;;;;;;47.78;8.73;;;26.00;84.10;;;;;;5023225;28;20479;-56
2023/08/17 09:37:38;;;;;;;68.05;9.18;;;26.00;84.30;;;;;;5022086;28;20056;-55
2023/08/17 09:40:04;;;;;;;60.85;9.00;;;26.00;84.20;;;;;;5023376;28;20034;-56
2023/08/17 09:42:31;;;;;;;49.90;8.90;;;26.10;84.00;;;;;;5024279;28;20026;-56
2023/08/17 09:44:57;;;;;;;63.28;8.50;;;26.10;83.80;;;;;;5022260;28;20025;-55
2023/08/17 09:47:23;;;;;;;46.85;8.35;;;26.10;83.80;;;;;;5012646;28;20102;-56
2023/08/17 09:49:50;;;;;;;74.75;10.95;;;26.20;83.60;;;;;;5017658;28;20045;-56
2023/08/17 09:52:16;;;;;;;64.63;10.52;;;26.20;83.50;;;;;;5018927;28;20037;-56
2023/08/17 09:54:41;;;;;;;57.83;8.38;;;26.20;83.50;;;;;;5022641;28;20058;-55
2023/08/17 09:57:07;;;;;;;80.00;10.98;;;26.20;83.50;;;;;;5024756;28;20064;-55
2023/08/17 09:59:32;;;;;;;76.50;10.07;;;26.30;83.60;;;;;;5032973;28;20040;-57
2023/08/17 10:01:58;;;;;;;69.72;10.25;;;26.30;83.60;;;;;;5014506;28;20034;-56
2023/08/17 10:04:23;;;;;;;84.05;11.45;;;26.30;83.60;;;;;;5024096;28;20053;-56
2023/08/17 10:06:52;;;;;;;66.57;9.35;;;26.40;84.50;;;;;;5008508;28;20061;-55
2023/08/17 10:09:21;;;;;;;54.97;9.48;;;26.50;84.50;;;;;;5025480;28;20088;-56
2023/08/17 10:11:47;;;;;;;63.20;9.68;;;26.50;84.40;;;;;;5020978;28;20035;-56
2023/08/17 10:14:23;;;;;;;50.83;9.40;;;26.50;84.30;;;;;;5008373;28;20110;-55
2023/08/17 10:16:59;;;;;;;83.90;11.55;;;26.60;84.40;;;;;;5025154;28;20041;-56
2023/08/17 10:19:48;;;;;;;101.80;13.65;;;26.70;84.30;;;;;;5005221;28;20623;-56
2023/08/17 10:22:43;;;;;;;75.53;11.02;;;26.80;84.40;;;;;;5020630;28;20021;-56
2023/08/17 10:25:10;;;;;;;101.40;10.95;;;26.80;84.30;;;;;;5018311;28;20048;-56
2023/08/17 10:27:36;;;;;;;79.78;11.52;;;26.90;83.50;;;;;;5025763;28;20029;-55
2023/08/17 10:30:01;;;;;;;57.75;9.63;;;26.90;83.40;;;;;;5025665;28;20037;-56
2023/08/17 10:32:27;;;;;;;59.25;9.73;;;26.90;83.20;;;;;;5024871;28;20036;-56
2023/08/17 10:34:52;;;;;;;107.35;14.48;;;26.90;83.20;;;;;;5021537;28;20087;-55
2023/08/17 10:37:19;;;;;;;105.10;12.98;;;26.90;83.20;;;;;;5021625;28;20061;-56
2023/08/17 10:39:45;;;;;;;87.97;11.63;;;27.00;83.40;;;;;;5018370;28;20022;-56
2023/08/17 10:42:11;;;;;;;75.85;11.85;;;27.00;83.10;;;;;;5023255;28;20061;-56
2023/08/17 10:44:47;;;;;;;85.53;12.18;;;27.00;82.70;;;;;;5024114;28;20030;-56
2023/08/17 10:47:22;;;;;;;85.00;11.73;;;27.10;82.70;;;;;;5026149;28;20041;-55
2023/08/17 10:49:51;;;;;;;80.78;11.63;;;27.10;82.40;;;;;;5024717;28;20026;-56
2023/08/17 10:52:25;;;;;;;67.10;11.30;;;27.10;82.00;;;;;;5025870;28;20497;-55
2023/08/17 10:54:51;;;;;;;83.85;11.90;;;27.10;81.50;;;;;;5023379;28;20049;-56
2023/08/17 10:57:39;;;;;;;71.13;10.43;;;27.10;81.30;;;;;;5024906;28;20199;-56
2023/08/17 11:00:15;;;;;;;69.07;10.95;;;27.20;80.90;;;;;;5025295;28;20029;-56
2023/08/17 11:02:40;;;;;;;68.70;10.38;;;27.20;80.60;;;;;;5025565;28;20080;-56
2023/08/17 11:05:07;;;;;;;72.78;10.43;;;27.30;79.80;;;;;;5024564;28;20030;-56
2023/08/17 11:07:40;;;;;;;61.33;9.45;;;27.30;79.40;;;;;;5025664;28;20040;-56
2023/08/17 11:10:20;;;;;;;94.30;13.18;;;27.30;78.90;;;;;;5026185;28;20034;-56
2023/08/17 11:12:46;;;;;;;53.47;9.57;;;27.40;78.20;;;;;;5027612;28;20092;-56
2023/08/17 11:15:11;;;;;;;87.10;11.30;;;27.40;77.90;;;;;;5027330;28;20029;-56
2023/08/17 11:17:37;;;;;;;75.65;10.30;;;27.40;77.10;;;;;;5025953;28;20060;-56
2023/08/17 11:20:04;;;;;;;78.13;11.80;;;27.40;76.40;;;;;;5026490;28;20034;-56
2023/08/17 11:22:29;;;;;;;65.95;9.80;;;27.50;75.70;;;;;;5026325;28;20034;-56
2023/08/17 11:24:55;;;;;;;86.25;11.35;;;27.50;74.60;;;;;;5022646;28;20444;-56
2023/08/17 11:27:21;;;;;;;99.65;12.25;;;27.60;74.20;;;;;;5016658;28;20434;-56
2023/08/17 11:29:47;;;;;;;60.50;9.23;;;27.60;73.30;;;;;;5025934;28;20038;-56
2023/08/17 11:32:15;;;;;;;95.82;11.70;;;27.70;72.70;;;;;;5025210;28;20406;-56
2023/08/17 11:34:41;;;;;;;80.43;11.50;;;27.70;72.10;;;;;;5026186;28;20030;-56
2023/08/17 11:37:06;;;;;;;87.10;10.88;;;27.80;72.30;;;;;;5024220;28;20022;-56
2023/08/17 11:39:35;;;;;;;100.50;12.20;;;27.80;72.60;;;;;;5026701;28;20053;-56
2023/08/17 11:42:00;;;;;;;100.63;11.40;;;27.90;72.00;;;;;;5026229;28;20078;-56
2023/08/17 11:44:26;;;;;;;91.53;11.98;;;27.90;72.10;;;;;;5025751;28;20054;-56
2023/08/17 11:46:51;;;;;;;86.78;11.13;;;27.90;72.30;;;;;;5024896;28;20116;-56
2023/08/17 11:49:17;;;;;;;110.38;14.27;;;27.90;72.60;;;;;;5025152;28;20041;-56
2023/08/17 11:51:43;;;;;;;93.55;12.93;;;27.90;72.90;;;;;;5026433;28;20097;-56
2023/08/17 11:54:08;;;;;;;66.03;11.25;;;27.90;73.10;;;;;;5025763;28;20057;-56
2023/08/17 11:56:34;;;;;;;65.57;9.52;;;27.90;73.20;;;;;;5026397;28;20080;-55
2023/08/17 11:59:07;;;;;;;77.68;11.32;;;27.90;73.20;;;;;;5025453;28;20029;-56
2023/08/17 12:01:34;;;;;;;60.30;10.30;;;28.00;73.40;;;;;;5023291;28;20084;-56
2023/08/17 12:04:00;;;;;;;51.75;9.20;;;28.00;73.60;;;;;;5026013;28;20030;-56
2023/08/17 12:06:26;;;;;;;87.15;11.40;;;28.00;73.40;;;;;;5024968;28;20520;-55
2023/08/17 12:08:51;;;;;;;59.15;8.18;;;28.00;73.40;;;;;;5024952;28;20030;-56
2023/08/17 12:11:17;;;;;;;55.47;9.35;;;28.00;73.00;;;;;;5024464;28;20045;-56
2023/08/17 12:13:45;;;;;;;65.75;10.02;;;28.00;73.00;;;;;;5026178;28;20103;-56
2023/08/17 12:16:17;;;;;;;53.70;8.07;;;28.00;73.10;;;;;;5025681;28;20034;-56
2023/08/17 12:18:52;;;;;;;64.47;8.25;;;28.00;72.90;;;;;;5025077;28;20612;-56
2023/08/17 12:21:21;;;;;;;62.80;9.23;;;28.10;72.90;;;;;;5008499;28;20499;-56
2023/08/17 12:23:47;;;;;;;58.13;8.85;;;28.10;73.00;;;;;;5006186;28;20467;-56
2023/08/17 12:26:21;;;;;;;45.50;8.05;;;28.10;72.90;;;;;;5004497;28;20026;-56
2023/08/17 12:28:46;;;;;;;57.90;8.15;;;28.10;72.90;;;;;;5014002;28;20386;-56
2023/08/17 12:31:12;;;;;;;49.42;7.50;;;28.10;73.00;;;;;;5025465;28;20125;-56
2023/08/17 12:33:37;;;;;;;47.53;7.75;;;28.10;73.50;;;;;;5025194;28;20037;-56